Back to Top
Banner_Quays_at_Mast_2020.jpeg
previous arrow
next arrow

Port Arrivals Report (AIS)

This report is generated from collected AIS (Automated Identification System) signals from vessels entering port.

IMO MMSI Class Flag Vessel Name Vessel type Nav Status Destination Call Sign Latitude Longitude Speed (kts) Course (T) Draught (m) LOA (m) Beam (m) Timestamp
0 250006598 B IE AN FANAI Pleasure craft - EI ZO 6 51.6878 -8.50188 3.9 344 0 8 3 2026-07-29 20:10:42
0 250001825 B IE OCEAN RANGER Pleasure craft - EIHP5 51.6872 -8.49923 5.7 359.4 0 12 5 2026-07-29 17:52:27
0 235061152 B GB NIKITA SAILING. - 2AMX9 51.6873 -8.50034 6.9 351.6 0 12 4 2026-07-29 17:34:42
0 250005179 B IE FREYA SAILING. - EI-TY-4 51.688 -8.50109 5.6 348.3 0 15 5 2026-07-29 17:19:27
0 250000731 B IE SALLYANNE Pleasure craft - EI-8917 51.6872 -8.49567 1.7 38.1 0 11 5 2026-07-29 14:59:51
0 250000807 B IE CHRISTINE Pleasure craft - EI AG 3 51.6876 -8.49806 3.8 354.5 0 13 4 2026-07-29 14:49:50
0 250001107 B IE SOLAR WIND SAILING. - EICQ5 51.6879 -8.50025 5.3 350.9 0 10 3 2026-07-29 14:06:04
0 250014182 A IE LADY CATHERINE PASSENGER. - EIA2647 51.6879 -8.49787 9.2 324.3 0 0 0 2026-07-29 13:28:31
0 227369590 B FR LOMASYPA TOO Pleasure craft - FAD2050 51.6876 -8.49901 17.5 358.9 0 0 0 2026-07-29 10:51:02
0 250014182 A IE LADY CATHERINE PASSENGER. - EIA2647 51.6897 -8.49891 10.7 348.2 0 0 0 2026-07-29 09:25:31
0 250006183 A IE HARVEST REAPER II FISHING. - BALTIMORE EI-XW-3 51.6874 -8.49794 6.8 7.2 3 17 6 2026-07-29 08:01:06
0 250003953 B IE ALICE AGAIN FISHING. - EI8857 51.6885 -8.49836 7.1 335.8 0 10 4 2026-07-29 06:10:59
0 250001825 B IE OCEAN RANGER Pleasure craft - EIHP5 51.6908 -8.50144 16.3 349.3 0 12 5 2026-07-28 21:25:41
0 232016609 B GB RNLI LIFEBOAT B-909 SAR. - 51.6872 -8.49886 30 351.6 0 8 2 2026-07-28 20:32:36
0 250014211 B IE KARINA SAILING. - EIA2676 51.6872 -8.49979 6.1 2.3 0 11 4 2026-07-28 18:56:38
0 250002054 B IE PINK PANTHER SAILING. - EIJF2 51.6874 -8.49687 5.8 348 0 0 0 2026-07-28 18:16:16
0 250002369 B IE JAVA SAILING. - EILA2 51.6878 -8.50039 3.2 12.1 0 11 4 2026-07-28 18:08:08
0 250000551 B IE BEEZNEEZ SAILING. - EI8493 51.6881 -8.49693 4.2 352.5 0 14 4 2026-07-28 17:08:59
0 250014960 B IE GWU I SAR. - EIA3426 51.6923 -8.50007 1.8 226.3 0 7 3 2026-07-28 15:43:47
0 250014774 B IE HARPY DREDGING / UNDERWATER Ops. - EIA3240 51.6936 -8.53265 8.2 110.3 0 13 4 2026-07-28 15:18:22